sensor_id;sensor_type;location;lat;lon;timestamp;P1;P2;P0
84428;PMS7003;74637;52.170;21.034;2024-01-10T00:02:18;46.00;37.00;21.00
84428;PMS7003;74637;52.170;21.034;2024-01-10T00:04:46;53.00;38.50;21.00
84428;PMS7003;74637;52.170;21.034;2024-01-10T00:07:12;51.50;32.00;21.00
84428;PMS7003;74637;52.170;21.034;2024-01-10T00:09:39;55.00;36.00;21.00
84428;PMS7003;74637;52.170;21.034;2024-01-10T00:12:05;72.00;46.00;23.00
84428;PMS7003;74637;52.170;21.034;2024-01-10T00:14:32;64.50;47.00;26.00
84428;PMS7003;74637;52.170;21.034;2024-01-10T00:16:59;46.00;33.50;21.00
84428;PMS7003;74637;52.170;21.034;2024-01-10T00:19:25;30.00;25.00;16.00
84428;PMS7003;74637;52.170;21.034;2024-01-10T00:21:52;45.00;34.00;21.00
84428;PMS7003;74637;52.170;21.034;2024-01-10T00:24:18;46.00;37.00;25.00
84428;PMS7003;74637;52.170;21.034;2024-01-10T00:26:45;49.00;37.00;16.00
84428;PMS7003;74637;52.170;21.034;2024-01-10T00:29:12;42.50;33.00;18.00
84428;PMS7003;74637;52.170;21.034;2024-01-10T00:31:39;63.00;37.00;21.00
84428;PMS7003;74637;52.170;21.034;2024-01-10T00:34:06;24.50;15.50;1.00
84428;PMS7003;74637;52.170;21.034;2024-01-10T00:36:33;64.00;40.00;22.00
84428;PMS7003;74637;52.170;21.034;2024-01-10T00:38:59;45.00;33.00;16.00
84428;PMS7003;74637;52.170;21.034;2024-01-10T00:41:26;47.00;30.00;18.50
84428;PMS7003;74637;52.170;21.034;2024-01-10T00:43:53;47.50;30.50;19.00
84428;PMS7003;74637;52.170;21.034;2024-01-10T00:46:19;48.00;34.00;19.00
84428;PMS7003;74637;52.170;21.034;2024-01-10T00:48:47;47.00;34.00;20.00
84428;PMS7003;74637;52.170;21.034;2024-01-10T00:51:13;41.00;33.50;18.50
84428;PMS7003;74637;52.170;21.034;2024-01-10T00:53:41;52.00;38.50;24.00
84428;PMS7003;74637;52.170;21.034;2024-01-10T00:56:09;46.00;37.00;19.00
84428;PMS7003;74637;52.170;21.034;2024-01-10T00:58:36;47.00;35.00;20.00
84428;PMS7003;74637;52.170;21.034;2024-01-10T01:01:03;58.00;39.00;25.00
84428;PMS7003;74637;52.170;21.034;2024-01-10T01:03:31;43.00;33.00;19.00
84428;PMS7003;74637;52.170;21.034;2024-01-10T01:06:01;43.00;31.00;19.00
84428;PMS7003;74637;52.170;21.034;2024-01-10T01:08:29;60.00;43.00;21.00
84428;PMS7003;74637;52.170;21.034;2024-01-10T01:10:56;41.50;35.00;19.00
84428;PMS7003;74637;52.170;21.034;2024-01-10T01:13:23;41.00;37.00;19.50
84428;PMS7003;74637;52.170;21.034;2024-01-10T01:15:51;49.00;36.00;24.00
84428;PMS7003;74637;52.170;21.034;2024-01-10T01:18:18;48.00;37.00;19.00
84428;PMS7003;74637;52.170;21.034;2024-01-10T01:20:46;63.50;46.50;27.50
84428;PMS7003;74637;52.170;21.034;2024-01-10T01:23:15;57.50;38.50;24.50
84428;PMS7003;74637;52.170;21.034;2024-01-10T01:25:42;50.50;34.00;19.00
84428;PMS7003;74637;52.170;21.034;2024-01-10T01:28:09;42.00;28.00;18.00
84428;PMS7003;74637;52.170;21.034;2024-01-10T01:30:36;49.00;37.50;20.50
84428;PMS7003;74637;52.170;21.034;2024-01-10T01:33:03;63.00;49.00;25.00
84428;PMS7003;74637;52.170;21.034;2024-01-10T01:35:31;59.33;35.33;21.00
84428;PMS7003;74637;52.170;21.034;2024-01-10T01:37:59;56.00;37.00;20.00
84428;PMS7003;74637;52.170;21.034;2024-01-10T01:40:26;64.00;42.00;22.00
84428;PMS7003;74637;52.170;21.034;2024-01-10T01:42:53;62.00;41.67;22.33
84428;PMS7003;74637;52.170;21.034;2024-01-10T01:45:21;45.00;24.00;12.00
84428;PMS7003;74637;52.170;21.034;2024-01-10T01:47:48;57.50;38.00;21.50
84428;PMS7003;74637;52.170;21.034;2024-01-10T01:50:16;57.50;43.50;22.00
84428;PMS7003;74637;52.170;21.034;2024-01-10T01:52:44;61.50;37.00;19.00
84428;PMS7003;74637;52.170;21.034;2024-01-10T01:55:12;51.33;42.33;22.33
84428;PMS7003;74637;52.170;21.034;2024-01-10T01:57:39;66.00;47.00;24.00
84428;PMS7003;74637;52.170;21.034;2024-01-10T02:00:06;49.00;39.00;22.00
84428;PMS7003;74637;52.170;21.034;2024-01-10T02:02:34;72.33;44.00;24.00
84428;PMS7003;74637;52.170;21.034;2024-01-10T02:05:02;59.67;35.33;18.00
84428;PMS7003;74637;52.170;21.034;2024-01-10T02:07:30;39.50;27.50;12.00
84428;PMS7003;74637;52.170;21.034;2024-01-10T02:09:56;30.00;25.00;15.00
84428;PMS7003;74637;52.170;21.034;2024-01-10T02:12:23;48.50;31.00;17.50
84428;PMS7003;74637;52.170;21.034;2024-01-10T02:14:51;59.00;39.50;24.00
84428;PMS7003;74637;52.170;21.034;2024-01-10T02:17:18;53.00;41.00;26.00
84428;PMS7003;74637;52.170;21.034;2024-01-10T02:19:44;44.00;31.00;19.00
84428;PMS7003;74637;52.170;21.034;2024-01-10T02:22:11;42.00;28.00;19.00
84428;PMS7003;74637;52.170;21.034;2024-01-10T02:24:38;46.00;36.00;24.00
84428;PMS7003;74637;52.170;21.034;2024-01-10T02:27:04;60.50;46.00;25.00
84428;PMS7003;74637;52.170;21.034;2024-01-10T02:29:31;49.33;35.33;18.33
84428;PMS7003;74637;52.170;21.034;2024-01-10T02:31:57;60.50;45.50;26.00
84428;PMS7003;74637;52.170;21.034;2024-01-10T02:34:24;55.50;41.50;23.00
84428;PMS7003;74637;52.170;21.034;2024-01-10T02:36:50;54.67;43.00;22.33
84428;PMS7003;74637;52.170;21.034;2024-01-10T02:39:17;51.50;39.50;21.50
84428;PMS7003;74637;52.170;21.034;2024-01-10T02:41:43;55.00;43.00;25.00
84428;PMS7003;74637;52.170;21.034;2024-01-10T02:44:10;53.50;41.00;23.00
84428;PMS7003;74637;52.170;21.034;2024-01-10T02:46:36;60.00;45.00;24.00
84428;PMS7003;74637;52.170;21.034;2024-01-10T02:49:03;57.00;33.00;19.00
84428;PMS7003;74637;52.170;21.034;2024-01-10T02:51:30;40.00;31.00;16.00
84428;PMS7003;74637;52.170;21.034;2024-01-10T02:53:57;48.50;41.50;25.50
84428;PMS7003;74637;52.170;21.034;2024-01-10T02:56:24;52.00;39.00;19.33
84428;PMS7003;74637;52.170;21.034;2024-01-10T02:58:50;54.00;43.00;25.00
84428;PMS7003;74637;52.170;21.034;2024-01-10T03:01:17;45.00;33.67;19.00
84428;PMS7003;74637;52.170;21.034;2024-01-10T03:03:43;60.00;43.00;25.00
84428;PMS7003;74637;52.170;21.034;2024-01-10T03:06:10;67.00;46.00;25.00
84428;PMS7003;74637;52.170;21.034;2024-01-10T03:08:36;54.00;43.00;25.00
84428;PMS7003;74637;52.170;21.034;2024-01-10T03:11:03;48.00;39.00;24.00
84428;PMS7003;74637;52.170;21.034;2024-01-10T03:13:30;58.00;41.50;22.50
84428;PMS7003;74637;52.170;21.034;2024-01-10T03:15:56;61.00;46.00;27.00
84428;PMS7003;74637;52.170;21.034;2024-01-10T03:18:23;67.67;48.33;30.00
84428;PMS7003;74637;52.170;21.034;2024-01-10T03:20:50;46.00;42.00;24.00
84428;PMS7003;74637;52.170;21.034;2024-01-10T03:23:16;49.00;39.00;25.00
84428;PMS7003;74637;52.170;21.034;2024-01-10T03:25:43;67.67;48.00;27.33
84428;PMS7003;74637;52.170;21.034;2024-01-10T03:28:09;55.00;43.50;26.00
84428;PMS7003;74637;52.170;21.034;2024-01-10T03:30:36;65.50;45.00;24.50
84428;PMS7003;74637;52.170;21.034;2024-01-10T03:33:02;75.00;52.00;30.00
84428;PMS7003;74637;52.170;21.034;2024-01-10T03:35:29;71.00;48.00;24.00
84428;PMS7003;74637;52.170;21.034;2024-01-10T03:37:56;75.00;52.00;30.00
84428;PMS7003;74637;52.170;21.034;2024-01-10T03:40:22;63.50;45.50;24.50
84428;PMS7003;74637;52.170;21.034;2024-01-10T03:42:49;70.00;49.00;28.00
84428;PMS7003;74637;52.170;21.034;2024-01-10T03:45:15;68.00;48.00;27.00
84428;PMS7003;74637;52.170;21.034;2024-01-10T03:47:45;55.00;39.00;25.00
84428;PMS7003;74637;52.170;21.034;2024-01-10T03:50:19;66.67;46.00;26.33
84428;PMS7003;74637;52.170;21.034;2024-01-10T03:52:46;67.67;46.67;27.33
84428;PMS7003;74637;52.170;21.034;2024-01-10T03:55:13;53.00;36.50;17.50
84428;PMS7003;74637;52.170;21.034;2024-01-10T03:57:41;55.50;45.50;27.00
84428;PMS7003;74637;52.170;21.034;2024-01-10T04:00:08;52.67;34.67;21.00
84428;PMS7003;74637;52.170;21.034;2024-01-10T04:02:36;69.00;47.00;25.00
84428;PMS7003;74637;52.170;21.034;2024-01-10T04:05:07;67.00;45.00;25.00
84428;PMS7003;74637;52.170;21.034;2024-01-10T04:07:36;65.50;40.00;24.00
84428;PMS7003;74637;52.170;21.034;2024-01-10T04:10:03;56.00;45.00;24.00
84428;PMS7003;74637;52.170;21.034;2024-01-10T04:12:30;60.50;38.00;22.00
84428;PMS7003;74637;52.170;21.034;2024-01-10T04:14:57;49.00;33.50;20.00
84428;PMS7003;74637;52.170;21.034;2024-01-10T04:17:23;48.00;34.00;18.00
84428;PMS7003;74637;52.170;21.034;2024-01-10T04:19:50;60.00;45.00;24.50
84428;PMS7003;74637;52.170;21.034;2024-01-10T04:22:16;49.00;38.00;20.00
84428;PMS7003;74637;52.170;21.034;2024-01-10T04:24:43;62.50;39.50;21.50
84428;PMS7003;74637;52.170;21.034;2024-01-10T04:27:09;65.00;48.50;28.50
84428;PMS7003;74637;52.170;21.034;2024-01-10T04:29:36;55.00;40.00;21.00
84428;PMS7003;74637;52.170;21.034;2024-01-10T04:32:03;38.33;23.67;13.67
84428;PMS7003;74637;52.170;21.034;2024-01-10T04:34:30;47.33;35.33;19.00
84428;PMS7003;74637;52.170;21.034;2024-01-10T04:36:56;53.00;45.00;25.00
84428;PMS7003;74637;52.170;21.034;2024-01-10T04:39:23;49.00;37.00;22.00
84428;PMS7003;74637;52.170;21.034;2024-01-10T04:41:49;60.33;45.00;22.00
84428;PMS7003;74637;52.170;21.034;2024-01-10T04:44:16;47.00;35.50;18.50
84428;PMS7003;74637;52.170;21.034;2024-01-10T04:46:43;52.00;33.00;19.00
84428;PMS7003;74637;52.170;21.034;2024-01-10T04:49:09;64.00;46.00;27.00
84428;PMS7003;74637;52.170;21.034;2024-01-10T04:51:36;51.00;40.00;25.00
84428;PMS7003;74637;52.170;21.034;2024-01-10T04:54:02;67.00;48.00;28.00
84428;PMS7003;74637;52.170;21.034;2024-01-10T04:56:29;62.33;45.33;26.33
84428;PMS7003;74637;52.170;21.034;2024-01-10T04:58:56;65.50;45.50;26.00
84428;PMS7003;74637;52.170;21.034;2024-01-10T05:01:22;51.50;35.00;20.00
84428;PMS7003;74637;52.170;21.034;2024-01-10T05:03:49;69.00;42.00;27.00
84428;PMS7003;74637;52.170;21.034;2024-01-10T05:06:16;58.00;40.00;24.00
84428;PMS7003;74637;52.170;21.034;2024-01-10T05:08:42;63.00;48.00;27.00
84428;PMS7003;74637;52.170;21.034;2024-01-10T05:11:09;59.00;42.50;25.00
84428;PMS7003;74637;52.170;21.034;2024-01-10T05:13:35;53.00;34.00;20.00
84428;PMS7003;74637;52.170;21.034;2024-01-10T05:16:02;48.00;33.50;19.00
84428;PMS7003;74637;52.170;21.034;2024-01-10T05:18:29;65.00;41.50;27.50
84428;PMS7003;74637;52.170;21.034;2024-01-10T05:20:55;63.00;42.00;25.00
84428;PMS7003;74637;52.170;21.034;2024-01-10T05:23:23;46.50;41.00;23.50
84428;PMS7003;74637;52.170;21.034;2024-01-10T05:25:50;63.00;34.00;18.00
84428;PMS7003;74637;52.170;21.034;2024-01-10T05:28:16;72.00;49.00;29.00
84428;PMS7003;74637;52.170;21.034;2024-01-10T05:30:44;66.50;45.50;29.00
84428;PMS7003;74637;52.170;21.034;2024-01-10T05:33:10;55.00;41.00;24.50
84428;PMS7003;74637;52.170;21.034;2024-01-10T05:35:38;53.33;41.67;22.00
84428;PMS7003;74637;52.170;21.034;2024-01-10T05:38:05;58.00;48.00;27.00
84428;PMS7003;74637;52.170;21.034;2024-01-10T05:40:31;64.00;45.00;24.00
84428;PMS7003;74637;52.170;21.034;2024-01-10T05:42:58;61.00;48.00;25.00
84428;PMS7003;74637;52.170;21.034;2024-01-10T05:45:28;55.67;44.33;24.67
84428;PMS7003;74637;52.170;21.034;2024-01-10T05:47:54;54.67;42.67;24.67
84428;PMS7003;74637;52.170;21.034;2024-01-10T05:50:21;55.67;37.67;18.33
84428;PMS7003;74637;52.170;21.034;2024-01-10T05:52:47;60.50;45.00;28.00
84428;PMS7003;74637;52.170;21.034;2024-01-10T05:55:14;72.00;45.00;27.00
84428;PMS7003;74637;52.170;21.034;2024-01-10T05:57:41;59.00;45.00;23.00
84428;PMS7003;74637;52.170;21.034;2024-01-10T06:00:07;42.00;31.00;15.00
84428;PMS7003;74637;52.170;21.034;2024-01-10T06:02:36;64.50;42.50;25.00
84428;PMS7003;74637;52.170;21.034;2024-01-10T06:05:08;59.00;40.00;21.50
84428;PMS7003;74637;52.170;21.034;2024-01-10T06:07:36;67.00;45.00;25.00
84428;PMS7003;74637;52.170;21.034;2024-01-10T06:10:04;60.50;41.00;23.00
84428;PMS7003;74637;52.170;21.034;2024-01-10T06:12:31;60.00;49.00;30.00
84428;PMS7003;74637;52.170;21.034;2024-01-10T06:14:58;70.00;47.00;27.50
84428;PMS7003;74637;52.170;21.034;2024-01-10T06:17:24;55.00;37.00;24.00
84428;PMS7003;74637;52.170;21.034;2024-01-10T06:19:51;49.33;40.00;21.33
84428;PMS7003;74637;52.170;21.034;2024-01-10T06:22:17;75.50;51.50;24.00
84428;PMS7003;74637;52.170;21.034;2024-01-10T06:24:44;68.50;48.00;27.00
84428;PMS7003;74637;52.170;21.034;2024-01-10T06:27:11;78.00;49.00;27.00
84428;PMS7003;74637;52.170;21.034;2024-01-10T06:29:37;64.00;45.00;24.50
84428;PMS7003;74637;52.170;21.034;2024-01-10T06:32:04;72.75;48.25;27.25
84428;PMS7003;74637;52.170;21.034;2024-01-10T06:34:32;67.00;42.00;25.00
84428;PMS7003;74637;52.170;21.034;2024-01-10T06:37:00;51.00;37.00;22.00
84428;PMS7003;74637;52.170;21.034;2024-01-10T06:39:26;67.00;49.00;28.00
84428;PMS7003;74637;52.170;21.034;2024-01-10T06:41:54;55.00;45.00;24.00
84428;PMS7003;74637;52.170;21.034;2024-01-10T06:44:21;48.00;43.00;27.00
84428;PMS7003;74637;52.170;21.034;2024-01-10T06:46:48;67.00;51.00;30.00
84428;PMS7003;74637;52.170;21.034;2024-01-10T06:49:14;61.50;40.50;24.00
84428;PMS7003;74637;52.170;21.034;2024-01-10T06:51:41;63.00;43.00;27.00
84428;PMS7003;74637;52.170;21.034;2024-01-10T06:54:08;54.50;41.00;24.00
84428;PMS7003;74637;52.170;21.034;2024-01-10T06:56:35;61.00;41.00;23.00
84428;PMS7003;74637;52.170;21.034;2024-01-10T06:59:01;47.00;27.00;20.00
84428;PMS7003;74637;52.170;21.034;2024-01-10T07:01:28;60.00;45.00;27.00
84428;PMS7003;74637;52.170;21.034;2024-01-10T07:03:54;52.00;45.00;27.00
84428;PMS7003;74637;52.170;21.034;2024-01-10T07:06:21;53.00;41.00;24.00
84428;PMS7003;74637;52.170;21.034;2024-01-10T07:08:49;67.00;40.00;25.00
84428;PMS7003;74637;52.170;21.034;2024-01-10T07:11:17;65.50;45.50;24.00
84428;PMS7003;74637;52.170;21.034;2024-01-10T07:13:44;80.00;51.50;30.00
84428;PMS7003;74637;52.170;21.034;2024-01-10T07:16:10;63.00;42.00;24.00
84428;PMS7003;74637;52.170;21.034;2024-01-10T07:18:38;72.00;43.00;25.00
84428;PMS7003;74637;52.170;21.034;2024-01-10T07:21:05;58.00;48.00;22.00
84428;PMS7003;74637;52.170;21.034;2024-01-10T07:23:31;72.00;48.00;25.00
84428;PMS7003;74637;52.170;21.034;2024-01-10T07:25:58;68.00;45.00;25.00
84428;PMS7003;74637;52.170;21.034;2024-01-10T07:28:25;53.00;37.00;19.00
84428;PMS7003;74637;52.170;21.034;2024-01-10T07:30:51;67.00;46.00;27.00
84428;PMS7003;74637;52.170;21.034;2024-01-10T07:33:18;75.00;48.00;29.00
84428;PMS7003;74637;52.170;21.034;2024-01-10T07:35:44;71.33;51.00;23.67
84428;PMS7003;74637;52.170;21.034;2024-01-10T07:38:11;67.00;48.00;30.00
84428;PMS7003;74637;52.170;21.034;2024-01-10T07:40:37;77.00;52.00;32.00
84428;PMS7003;74637;52.170;21.034;2024-01-10T07:43:04;62.50;40.00;24.50
84428;PMS7003;74637;52.170;21.034;2024-01-10T07:45:31;55.00;47.00;27.50
84428;PMS7003;74637;52.170;21.034;2024-01-10T07:47:57;72.50;51.50;30.00
84428;PMS7003;74637;52.170;21.034;2024-01-10T07:50:24;59.00;49.00;28.00
84428;PMS7003;74637;52.170;21.034;2024-01-10T07:52:53;70.00;48.00;25.00
84428;PMS7003;74637;52.170;21.034;2024-01-10T07:55:20;54.50;39.50;22.00
84428;PMS7003;74637;52.170;21.034;2024-01-10T07:57:46;59.50;45.00;25.00
84428;PMS7003;74637;52.170;21.034;2024-01-10T08:00:13;70.00;52.00;30.00
84428;PMS7003;74637;52.170;21.034;2024-01-10T08:02:40;55.33;43.00;24.67
84428;PMS7003;74637;52.170;21.034;2024-01-10T08:05:07;71.00;47.00;26.00
84428;PMS7003;74637;52.170;21.034;2024-01-10T08:07:37;75.00;48.00;28.00
84428;PMS7003;74637;52.170;21.034;2024-01-10T08:10:08;69.33;47.33;24.33
84428;PMS7003;74637;52.170;21.034;2024-01-10T08:12:36;70.67;52.00;28.67
84428;PMS7003;74637;52.170;21.034;2024-01-10T08:15:05;57.50;46.50;28.50
84428;PMS7003;74637;52.170;21.034;2024-01-10T08:17:32;73.00;52.00;27.00
84428;PMS7003;74637;52.170;21.034;2024-01-10T08:19:59;75.00;52.00;30.00
84428;PMS7003;74637;52.170;21.034;2024-01-10T08:22:29;63.00;42.00;24.00
84428;PMS7003;74637;52.170;21.034;2024-01-10T08:24:55;74.00;51.50;29.00
84428;PMS7003;74637;52.170;21.034;2024-01-10T08:27:22;66.00;42.00;24.00
84428;PMS7003;74637;52.170;21.034;2024-01-10T08:29:49;57.00;42.00;24.00
84428;PMS7003;74637;52.170;21.034;2024-01-10T08:32:15;76.00;49.00;28.00
84428;PMS7003;74637;52.170;21.034;2024-01-10T08:34:44;56.00;41.00;26.00
84428;PMS7003;74637;52.170;21.034;2024-01-10T08:37:11;72.00;46.00;25.67
84428;PMS7003;74637;52.170;21.034;2024-01-10T08:39:38;59.50;44.00;22.00
84428;PMS7003;74637;52.170;21.034;2024-01-10T08:42:04;69.75;51.75;28.00
84428;PMS7003;74637;52.170;21.034;2024-01-10T08:44:31;68.50;51.50;28.00
84428;PMS7003;74637;52.170;21.034;2024-01-10T08:46:57;62.50;45.50;24.00
84428;PMS7003;74637;52.170;21.034;2024-01-10T08:49:24;60.00;45.50;24.00
84428;PMS7003;74637;52.170;21.034;2024-01-10T08:51:52;74.33;51.00;30.00
84428;PMS7003;74637;52.170;21.034;2024-01-10T08:54:19;64.00;43.00;24.00
84428;PMS7003;74637;52.170;21.034;2024-01-10T08:56:48;48.00;34.50;21.00
84428;PMS7003;74637;52.170;21.034;2024-01-10T08:59:15;65.00;43.00;24.50
84428;PMS7003;74637;52.170;21.034;2024-01-10T09:01:41;57.00;40.00;22.00
84428;PMS7003;74637;52.170;21.034;2024-01-10T09:04:08;67.00;48.00;27.00
84428;PMS7003;74637;52.170;21.034;2024-01-10T09:06:35;56.00;42.00;24.00
84428;PMS7003;74637;52.170;21.034;2024-01-10T09:09:04;64.00;42.00;24.00
84428;PMS7003;74637;52.170;21.034;2024-01-10T09:11:31;62.50;42.00;24.50
84428;PMS7003;74637;52.170;21.034;2024-01-10T09:13:57;55.50;44.00;26.00
84428;PMS7003;74637;52.170;21.034;2024-01-10T09:16:25;57.00;36.50;21.50
84428;PMS7003;74637;52.170;21.034;2024-01-10T09:18:51;64.33;48.67;30.00
84428;PMS7003;74637;52.170;21.034;2024-01-10T09:21:24;52.67;38.33;23.33
84428;PMS7003;74637;52.170;21.034;2024-01-10T09:23:51;57.00;45.25;27.25
84428;PMS7003;74637;52.170;21.034;2024-01-10T09:26:18;42.50;36.50;21.50
84428;PMS7003;74637;52.170;21.034;2024-01-10T09:28:45;50.67;42.67;22.33
84428;PMS7003;74637;52.170;21.034;2024-01-10T09:31:11;54.33;40.67;22.67
84428;PMS7003;74637;52.170;21.034;2024-01-10T09:36:04;39.00;24.00;15.00
84428;PMS7003;74637;52.170;21.034;2024-01-10T09:38:35;52.00;37.00;19.00
84428;PMS7003;74637;52.170;21.034;2024-01-10T09:41:03;38.50;36.50;23.00
84428;PMS7003;74637;52.170;21.034;2024-01-10T09:43:31;73.33;50.67;27.00
84428;PMS7003;74637;52.170;21.034;2024-01-10T09:46:01;70.67;48.33;27.67
84428;PMS7003;74637;52.170;21.034;2024-01-10T09:48:31;75.00;49.00;30.00
84428;PMS7003;74637;52.170;21.034;2024-01-10T09:50:59;65.00;43.00;23.67
84428;PMS7003;74637;52.170;21.034;2024-01-10T09:53:26;62.67;46.67;30.33
84428;PMS7003;74637;52.170;21.034;2024-01-10T09:55:53;55.50;44.00;24.00
84428;PMS7003;74637;52.170;21.034;2024-01-10T09:58:23;72.00;51.25;30.00
84428;PMS7003;74637;52.170;21.034;2024-01-10T10:00:52;68.33;49.67;27.00
84428;PMS7003;74637;52.170;21.034;2024-01-10T10:03:19;74.00;45.00;27.50
84428;PMS7003;74637;52.170;21.034;2024-01-10T10:05:46;67.00;39.00;25.00
84428;PMS7003;74637;52.170;21.034;2024-01-10T10:08:13;65.00;44.00;27.50
84428;PMS7003;74637;52.170;21.034;2024-01-10T10:10:48;75.00;49.00;28.00
84428;PMS7003;74637;52.170;21.034;2024-01-10T10:13:25;84.00;58.00;30.00
84428;PMS7003;74637;52.170;21.034;2024-01-10T10:16:00;81.00;53.50;30.50
84428;PMS7003;74637;52.170;21.034;2024-01-10T10:18:28;89.50;57.50;33.00
84428;PMS7003;74637;52.170;21.034;2024-01-10T10:21:11;64.00;46.00;28.00
84428;PMS7003;74637;52.170;21.034;2024-01-10T10:23:39;72.00;51.00;30.50
84428;PMS7003;74637;52.170;21.034;2024-01-10T10:28:40;84.33;54.67;33.00
84428;PMS7003;74637;52.170;21.034;2024-01-10T10:31:07;31.00;10.00;0.00
84428;PMS7003;74637;52.170;21.034;2024-01-10T10:33:34;72.00;55.00;31.67
84428;PMS7003;74637;52.170;21.034;2024-01-10T10:36:02;79.00;51.00;28.00
84428;PMS7003;74637;52.170;21.034;2024-01-10T10:38:29;64.00;45.50;27.50
84428;PMS7003;74637;52.170;21.034;2024-01-10T10:40:55;70.00;51.00;30.00
84428;PMS7003;74637;52.170;21.034;2024-01-10T10:43:25;69.50;51.00;26.00
84428;PMS7003;74637;52.170;21.034;2024-01-10T10:45:52;70.00;51.00;26.00
84428;PMS7003;74637;52.170;21.034;2024-01-10T10:48:23;84.00;58.00;34.00
84428;PMS7003;74637;52.170;21.034;2024-01-10T10:53:36;84.33;57.67;33.00
84428;PMS7003;74637;52.170;21.034;2024-01-10T10:56:09;80.00;55.00;32.00
84428;PMS7003;74637;52.170;21.034;2024-01-10T11:01:13;66.00;49.00;27.00
84428;PMS7003;74637;52.170;21.034;2024-01-10T11:03:41;79.00;54.00;30.00
84428;PMS7003;74637;52.170;21.034;2024-01-10T11:06:13;79.33;51.33;28.67
84428;PMS7003;74637;52.170;21.034;2024-01-10T11:08:42;67.00;49.00;23.00
84428;PMS7003;74637;52.170;21.034;2024-01-10T11:19:57;86.00;62.00;36.00
84428;PMS7003;74637;52.170;21.034;2024-01-10T11:25:30;87.00;60.00;34.00
84428;PMS7003;74637;52.170;21.034;2024-01-10T11:27:56;66.00;49.00;30.00
84428;PMS7003;74637;52.170;21.034;2024-01-10T11:30:36;51.00;40.67;23.33
84428;PMS7003;74637;52.170;21.034;2024-01-10T11:33:17;74.00;58.00;31.50
84428;PMS7003;74637;52.170;21.034;2024-01-10T11:39:03;82.50;58.50;33.50
84428;PMS7003;74637;52.170;21.034;2024-01-10T11:41:33;76.00;57.00;33.00
84428;PMS7003;74637;52.170;21.034;2024-01-10T11:46:37;78.00;54.50;33.50
84428;PMS7003;74637;52.170;21.034;2024-01-10T11:49:08;82.00;57.00;33.00
84428;PMS7003;74637;52.170;21.034;2024-01-10T11:51:35;85.00;60.00;33.00
84428;PMS7003;74637;52.170;21.034;2024-01-10T11:54:02;84.33;58.67;33.67
84428;PMS7003;74637;52.170;21.034;2024-01-10T11:56:39;82.00;54.50;30.00
84428;PMS7003;74637;52.170;21.034;2024-01-10T11:59:10;77.67;53.67;32.33
84428;PMS7003;74637;52.170;21.034;2024-01-10T12:01:38;79.00;61.00;33.50
84428;PMS7003;74637;52.170;21.034;2024-01-10T12:04:06;82.50;60.00;33.00
84428;PMS7003;74637;52.170;21.034;2024-01-10T12:06:34;79.50;57.50;33.00
84428;PMS7003;74637;52.170;21.034;2024-01-10T12:09:03;81.00;61.00;33.00
84428;PMS7003;74637;52.170;21.034;2024-01-10T12:11:39;78.00;54.00;30.00
84428;PMS7003;74637;52.170;21.034;2024-01-10T12:14:06;82.00;60.00;34.00
84428;PMS7003;74637;52.170;21.034;2024-01-10T12:16:35;69.50;51.00;31.00
84428;PMS7003;74637;52.170;21.034;2024-01-10T12:19:01;80.00;56.00;34.00
84428;PMS7003;74637;52.170;21.034;2024-01-10T12:21:28;79.00;58.00;34.00
84428;PMS7003;74637;52.170;21.034;2024-01-10T12:23:56;70.00;54.00;31.00
84428;PMS7003;74637;52.170;21.034;2024-01-10T12:26:23;85.00;60.00;35.00
84428;PMS7003;74637;52.170;21.034;2024-01-10T12:28:53;82.00;63.00;36.00
84428;PMS7003;74637;52.170;21.034;2024-01-10T12:31:21;86.50;59.00;34.50
84428;PMS7003;74637;52.170;21.034;2024-01-10T12:33:51;73.00;54.00;30.00
84428;PMS7003;74637;52.170;21.034;2024-01-10T12:36:18;78.00;58.00;34.00
84428;PMS7003;74637;52.170;21.034;2024-01-10T12:38:46;82.00;55.00;32.00
84428;PMS7003;74637;52.170;21.034;2024-01-10T12:41:16;73.00;52.50;33.00
84428;PMS7003;74637;52.170;21.034;2024-01-10T12:43:48;84.50;59.50;38.00
84428;PMS7003;74637;52.170;21.034;2024-01-10T12:46:17;80.67;56.33;33.00
84428;PMS7003;74637;52.170;21.034;2024-01-10T12:48:43;87.00;61.00;35.00
84428;PMS7003;74637;52.170;21.034;2024-01-10T12:51:10;77.00;60.00;35.00
84428;PMS7003;74637;52.170;21.034;2024-01-10T12:53:39;79.00;56.00;32.00
84428;PMS7003;74637;52.170;21.034;2024-01-10T12:56:10;94.00;62.00;36.00
84428;PMS7003;74637;52.170;21.034;2024-01-10T12:58:40;83.50;59.50;34.00
84428;PMS7003;74637;52.170;21.034;2024-01-10T13:01:08;84.00;56.00;34.50
84428;PMS7003;74637;52.170;21.034;2024-01-10T13:03:36;90.00;63.00;35.00
84428;PMS7003;74637;52.170;21.034;2024-01-10T13:06:04;82.50;58.00;34.50
84428;PMS7003;74637;52.170;21.034;2024-01-10T13:08:31;78.50;58.50;35.00
84428;PMS7003;74637;52.170;21.034;2024-01-10T13:11:01;87.00;63.00;40.00
84428;PMS7003;74637;52.170;21.034;2024-01-10T13:13:30;96.33;66.00;40.67
84428;PMS7003;74637;52.170;21.034;2024-01-10T13:15:57;85.00;63.00;38.00
84428;PMS7003;74637;52.170;21.034;2024-01-10T13:18:23;83.00;63.00;35.00
84428;PMS7003;74637;52.170;21.034;2024-01-10T13:20:50;91.00;61.00;36.50
84428;PMS7003;74637;52.170;21.034;2024-01-10T13:23:17;77.00;60.00;35.00
84428;PMS7003;74637;52.170;21.034;2024-01-10T13:25:45;77.50;55.50;33.50
84428;PMS7003;74637;52.170;21.034;2024-01-10T13:28:11;85.00;58.00;34.00
84428;PMS7003;74637;52.170;21.034;2024-01-10T13:30:39;86.50;60.00;35.00
84428;PMS7003;74637;52.170;21.034;2024-01-10T13:33:07;86.33;62.33;36.67
84428;PMS7003;74637;52.170;21.034;2024-01-10T13:35:38;84.00;60.00;34.00
84428;PMS7003;74637;52.170;21.034;2024-01-10T13:38:06;74.50;56.00;31.50
84428;PMS7003;74637;52.170;21.034;2024-01-10T13:40:32;85.00;61.50;34.00
84428;PMS7003;74637;52.170;21.034;2024-01-10T13:43:00;80.00;58.00;34.00
84428;PMS7003;74637;52.170;21.034;2024-01-10T13:45:30;91.00;61.00;35.00
84428;PMS7003;74637;52.170;21.034;2024-01-10T13:47:56;75.50;57.00;33.00
84428;PMS7003;74637;52.170;21.034;2024-01-10T13:50:23;92.00;64.00;36.50
84428;PMS7003;74637;52.170;21.034;2024-01-10T13:52:51;84.00;62.50;36.00
84428;PMS7003;74637;52.170;21.034;2024-01-10T13:55:17;87.50;61.00;35.50
84428;PMS7003;74637;52.170;21.034;2024-01-10T13:57:44;95.00;65.00;40.00
84428;PMS7003;74637;52.170;21.034;2024-01-10T14:00:11;88.00;64.00;35.00
84428;PMS7003;74637;52.170;21.034;2024-01-10T14:02:41;93.67;66.00;39.67
84428;PMS7003;74637;52.170;21.034;2024-01-10T14:05:08;89.00;62.00;36.00